createdAt,value
2018-11-25T00:03:58.454Z,83.20
2018-11-25T00:08:02.256Z,84.00
2018-11-25T00:12:06.076Z,83.20
2018-11-25T00:16:09.793Z,83.20
2018-11-25T00:20:13.864Z,83.20
2018-11-25T00:24:17.593Z,83.20
2018-11-25T00:28:21.282Z,83.20
2018-11-25T00:32:24.995Z,83.20
2018-11-25T00:36:28.742Z,83.20
2018-11-25T00:40:32.500Z,83.10
2018-11-25T00:44:36.220Z,83.10
2018-11-25T00:48:39.977Z,83.20
2018-11-25T00:52:43.664Z,83.20
2018-11-25T00:56:47.418Z,83.20
2018-11-25T01:00:51.158Z,83.20
2018-11-25T01:04:54.919Z,83.30
2018-11-25T01:08:58.802Z,83.30
2018-11-25T01:13:02.486Z,83.50
2018-11-25T01:17:06.529Z,83.20
2018-11-25T01:21:10.268Z,83.20
2018-11-25T01:25:13.985Z,83.30
2018-11-25T01:29:17.745Z,83.30
2018-11-25T01:39:26.337Z,83.30
2018-11-25T01:43:30.058Z,83.30
2018-11-25T01:47:33.781Z,83.40
2018-11-25T01:51:37.490Z,83.20
2018-11-25T01:55:41.205Z,83.40
2018-11-25T01:59:44.961Z,83.30
2018-11-25T02:03:48.674Z,83.30
2018-11-25T02:07:52.426Z,83.30
2018-11-25T02:11:56.135Z,83.30
2018-11-25T02:15:59.832Z,83.30
2018-11-25T02:20:05.733Z,83.30
2018-11-25T02:24:09.437Z,84.10
2018-11-25T02:28:13.108Z,83.30
2018-11-25T02:32:16.873Z,83.30
2018-11-25T02:36:20.584Z,83.20
2018-11-25T02:40:24.286Z,83.20
2018-11-25T02:44:27.972Z,83.20
2018-11-25T02:48:31.683Z,83.10
2018-11-25T02:52:35.364Z,83.90
2018-11-25T02:56:39.073Z,83.30
2018-11-25T03:00:42.861Z,83.10
2018-11-25T03:04:46.537Z,83.10
2018-11-25T03:08:50.219Z,83.10
2018-11-25T03:12:54.056Z,83.10
2018-11-25T03:16:57.745Z,83.00
2018-11-25T03:21:01.433Z,82.90
2018-11-25T03:25:06.826Z,82.90
2018-11-25T03:29:10.479Z,82.30
2018-11-25T03:33:14.221Z,82.90
2018-11-25T03:37:17.895Z,83.00
2018-11-25T03:41:21.619Z,83.00
2018-11-25T03:45:25.438Z,83.00
2018-11-25T03:49:29.074Z,83.00
2018-11-25T03:53:32.808Z,83.00
2018-11-25T03:57:36.642Z,82.90
2018-11-25T04:01:40.321Z,82.90
2018-11-25T04:05:44.009Z,83.80
2018-11-25T04:09:47.741Z,83.00
2018-11-25T04:13:51.425Z,83.00
2018-11-25T04:17:55.120Z,83.00
2018-11-25T04:21:58.798Z,83.10
2018-11-25T04:26:02.573Z,82.40
2018-11-25T04:30:09.306Z,83.10
2018-11-25T04:34:13.021Z,83.00
2018-11-25T04:38:16.729Z,83.10
2018-11-25T04:42:20.466Z,83.10
2018-11-25T04:46:27.057Z,83.20
2018-11-25T04:50:30.718Z,84.10
2018-11-25T04:54:34.420Z,83.30
2018-11-25T04:58:38.174Z,83.10
2018-11-25T05:02:42.146Z,83.20
2018-11-25T05:06:45.821Z,83.30
2018-11-25T05:10:49.525Z,83.30
2018-11-25T05:14:53.258Z,83.80
2018-11-25T05:18:56.999Z,83.30
2018-11-25T05:26:37.406Z,82.60
2018-11-25T05:30:41.034Z,83.30
2018-11-25T05:34:44.701Z,83.30
2018-11-25T05:38:48.412Z,83.30
2018-11-25T05:42:52.909Z,83.40
2018-11-25T05:47:29.675Z,82.60
2018-11-25T05:51:33.363Z,83.30
2018-11-25T05:55:37.020Z,84.10
2018-11-25T05:59:40.750Z,83.30
2018-11-25T06:03:44.454Z,83.30
2018-11-25T06:07:48.181Z,83.40
2018-11-25T06:11:51.840Z,83.30
2018-11-25T06:15:55.489Z,83.40
2018-11-25T06:19:59.274Z,83.50
2018-11-25T06:24:02.972Z,83.50
2018-11-25T06:28:06.668Z,83.50
2018-11-25T06:32:10.366Z,83.50
2018-11-25T06:36:14.028Z,83.40
2018-11-25T06:40:20.412Z,83.50
2018-11-25T06:44:24.080Z,83.50
2018-11-25T06:48:27.808Z,83.50
2018-11-25T06:52:31.524Z,83.50
2018-11-25T06:56:35.290Z,83.40
2018-11-25T07:00:38.966Z,83.50
2018-11-25T07:04:42.664Z,83.50
2018-11-25T07:08:46.408Z,83.50
2018-11-25T07:12:52.454Z,83.50
2018-11-25T07:16:57.155Z,83.50
2018-11-25T07:21:00.818Z,83.50
2018-11-25T07:25:04.610Z,83.60
2018-11-25T07:31:43.882Z,82.90
2018-11-25T07:39:54.197Z,83.00
2018-11-25T07:44:30.882Z,83.00
2018-11-25T07:48:34.625Z,83.70
2018-11-25T07:52:38.324Z,83.70
2018-11-25T07:56:41.999Z,83.70
2018-11-25T08:00:45.758Z,83.70
2018-11-25T08:04:49.433Z,83.70
2018-11-25T08:08:53.478Z,83.80
2018-11-25T08:12:57.137Z,83.90
2018-11-25T08:17:00.814Z,83.90
2018-11-25T08:21:04.475Z,83.90
2018-11-25T08:25:09.614Z,83.90
2018-11-25T08:29:13.301Z,84.00
2018-11-25T08:33:17.004Z,84.00
2018-11-25T08:37:20.670Z,84.00
2018-11-25T08:41:24.421Z,84.10
2018-11-25T08:45:28.134Z,84.10
2018-11-25T08:49:31.845Z,84.10
2018-11-25T08:53:35.521Z,84.10
2018-11-25T08:57:39.331Z,84.10
2018-11-25T09:01:43.052Z,84.00
2018-11-25T09:05:46.781Z,84.00
2018-11-25T09:09:50.542Z,84.00
2018-11-25T09:13:54.221Z,84.10
2018-11-25T09:17:57.966Z,84.00
2018-11-25T09:22:01.680Z,84.10
2018-11-25T09:26:08.744Z,84.30
2018-11-25T09:30:20.181Z,84.00
2018-11-25T09:36:19.016Z,83.30
2018-11-25T09:40:23.833Z,83.90
2018-11-25T09:44:27.516Z,84.10
2018-11-25T09:48:31.168Z,84.10
2018-11-25T09:52:34.833Z,84.10
2018-11-25T09:56:38.503Z,84.00
2018-11-25T10:00:42.181Z,84.00
2018-11-25T10:04:45.852Z,84.00
2018-11-25T10:08:49.537Z,84.00
2018-11-25T10:12:53.232Z,83.90
2018-11-25T10:16:56.866Z,83.90
2018-11-25T10:21:00.529Z,83.90
2018-11-25T10:25:04.297Z,84.00
2018-11-25T10:29:07.926Z,84.00
2018-11-25T10:33:11.677Z,83.90
2018-11-25T10:37:15.361Z,84.00
2018-11-25T10:41:19.066Z,84.40
2018-11-25T10:45:23.864Z,84.00
2018-11-25T10:49:27.504Z,84.10
2018-11-25T10:53:31.195Z,84.20
2018-11-25T10:57:34.882Z,84.40
2018-11-25T11:02:01.739Z,84.30
2018-11-25T11:06:10.921Z,84.30
2018-11-25T11:10:14.662Z,83.60
2018-11-25T11:14:18.392Z,84.30
2018-11-25T11:18:22.057Z,84.30
2018-11-25T11:22:25.881Z,84.30
2018-11-25T11:26:29.605Z,84.20
2018-11-25T11:30:33.367Z,84.20
2018-11-25T11:34:37.025Z,84.10
2018-11-25T11:38:40.692Z,84.60
2018-11-25T11:42:44.382Z,84.30
2018-11-25T11:46:48.108Z,84.20
2018-11-25T11:50:52.021Z,84.20
2018-11-25T11:54:55.676Z,84.20
2018-11-25T11:58:59.343Z,84.30
2018-11-25T12:03:03.027Z,84.30
2018-11-25T12:07:06.758Z,84.20
2018-11-25T12:11:10.446Z,84.20
2018-11-25T12:15:20.208Z,84.10
2018-11-25T12:19:23.884Z,84.20
2018-11-25T12:23:27.565Z,84.20
2018-11-25T12:27:31.229Z,84.10
2018-11-25T12:31:34.888Z,84.20
2018-11-25T12:35:38.565Z,84.20
2018-11-25T12:39:42.233Z,84.30
2018-11-25T12:43:45.890Z,84.20
2018-11-25T12:47:49.561Z,84.20
2018-11-25T12:51:53.243Z,84.20
2018-11-25T12:55:56.871Z,84.20
2018-11-25T13:00:00.586Z,84.20
2018-11-25T13:04:04.305Z,85.00
2018-11-25T13:08:09.044Z,84.30
2018-11-25T13:12:12.728Z,84.20
2018-11-25T13:16:16.376Z,84.20
2018-11-25T13:20:20.060Z,84.20
2018-11-25T13:24:23.721Z,84.20
2018-11-25T13:28:27.442Z,84.20
2018-11-25T13:32:31.125Z,84.40
2018-11-25T13:36:34.770Z,84.50
2018-11-25T13:40:40.200Z,84.30
2018-11-25T13:44:44.620Z,84.40
2018-11-25T13:48:49.666Z,84.50
2018-11-25T13:52:53.598Z,84.60
2018-11-25T13:56:58.407Z,84.50
2018-11-25T14:01:03.410Z,84.60
2018-11-25T14:05:08.015Z,84.50
2018-11-25T14:09:14.255Z,84.60
2018-11-25T14:13:17.980Z,84.60
2018-11-25T14:17:21.628Z,84.70
2018-11-25T14:21:25.306Z,85.10
2018-11-25T14:25:29.012Z,84.70
2018-11-25T14:29:32.680Z,84.80
2018-11-25T14:33:36.393Z,85.30
2018-11-25T14:37:40.056Z,84.90
2018-11-25T14:41:43.715Z,84.90
2018-11-25T14:45:47.401Z,85.00
2018-11-25T14:49:51.076Z,84.80
2018-11-25T14:53:54.761Z,84.80
2018-11-25T14:57:58.475Z,84.80
2018-11-25T15:02:02.116Z,84.80
2018-11-25T15:06:05.966Z,84.80
2018-11-25T15:10:10.784Z,84.90
2018-11-25T15:14:13.476Z,84.90
2018-11-25T15:18:17.181Z,84.90
2018-11-25T15:22:20.864Z,85.00
2018-11-25T15:26:24.586Z,84.90
2018-11-25T15:30:28.292Z,85.00
2018-11-25T15:34:32.016Z,85.10
2018-11-25T15:38:35.734Z,85.10
2018-11-25T15:42:39.530Z,85.10
2018-11-25T15:46:43.244Z,85.00
2018-11-25T15:50:46.932Z,85.00
2018-11-25T15:54:50.615Z,84.90
2018-11-25T15:58:54.326Z,84.90
2018-11-25T16:02:58.005Z,85.00
2018-11-25T16:07:01.774Z,85.10
2018-11-25T16:11:06.513Z,84.90
2018-11-25T16:15:11.919Z,85.00
2018-11-25T16:19:15.633Z,85.10
2018-11-25T16:23:19.368Z,85.30
2018-11-25T16:27:23.077Z,85.20
2018-11-25T16:31:27.644Z,86.00
2018-11-25T16:35:31.488Z,85.20
2018-11-25T16:39:35.189Z,85.10
2018-11-25T16:43:38.953Z,85.10
2018-11-25T16:47:42.844Z,85.30
2018-11-25T16:51:46.660Z,85.30
2018-11-25T16:55:50.590Z,85.30
2018-11-25T16:59:54.477Z,85.10
2018-11-25T17:03:58.314Z,85.00
2018-11-25T17:12:41.049Z,84.60
2018-11-25T17:16:44.775Z,85.20
2018-11-25T17:20:48.673Z,85.20
2018-11-25T17:24:52.532Z,85.40
2018-11-25T17:28:56.364Z,85.20
2018-11-25T17:33:01.217Z,85.30
2018-11-25T17:37:05.285Z,85.10
2018-11-25T17:41:09.089Z,85.20
2018-11-25T17:45:13.638Z,85.10
2018-11-25T17:49:17.637Z,85.10
2018-11-25T17:53:21.500Z,85.30
2018-11-25T17:57:25.274Z,85.30
2018-11-25T18:01:29.205Z,85.20
2018-11-25T18:05:38.647Z,85.50
2018-11-25T18:09:36.893Z,85.60
2018-11-25T18:13:41.625Z,85.60
2018-11-25T18:17:48.991Z,85.80
2018-11-25T18:21:57.145Z,85.70
2018-11-25T18:26:01.984Z,85.60
2018-11-25T18:30:09.269Z,84.80
2018-11-25T18:34:12.947Z,85.50
2018-11-25T18:38:16.632Z,85.60
2018-11-25T18:42:20.376Z,85.70
2018-11-25T18:46:24.064Z,85.80
2018-11-25T18:50:27.778Z,85.80
2018-11-25T18:54:31.457Z,85.70
2018-11-25T18:58:35.133Z,85.60
2018-11-25T19:02:41.376Z,85.50
2018-11-25T19:06:45.090Z,85.50
2018-11-25T19:10:48.838Z,85.50
2018-11-25T19:14:52.525Z,85.50
2018-11-25T19:18:56.248Z,85.50
2018-11-25T19:23:00.197Z,85.80
2018-11-25T19:27:03.894Z,85.60
2018-11-25T19:31:07.591Z,85.30
2018-11-25T19:35:12.496Z,85.40
2018-11-25T19:39:16.225Z,85.50
2018-11-25T19:43:19.905Z,85.60
2018-11-25T19:47:23.577Z,85.80
2018-11-25T19:51:27.261Z,86.00
2018-11-25T19:55:31.163Z,85.90
2018-11-25T19:59:34.938Z,85.60
2018-11-25T20:03:38.664Z,86.10
2018-11-25T20:07:43.114Z,85.90
2018-11-25T20:11:46.810Z,85.80
2018-11-25T20:15:50.481Z,85.80
2018-11-25T20:19:54.170Z,86.70
2018-11-25T20:23:57.857Z,85.80
2018-11-25T20:28:01.565Z,85.90
2018-11-25T20:32:10.921Z,86.00
2018-11-25T20:36:14.569Z,86.00
2018-11-25T20:40:18.313Z,85.90
2018-11-25T20:44:22.004Z,86.30
2018-11-25T20:48:25.821Z,86.40
2018-11-25T20:52:34.759Z,86.60
2018-11-25T20:56:38.490Z,86.30
2018-11-25T21:00:42.979Z,86.20
2018-11-25T21:04:46.681Z,86.30
2018-11-25T21:08:50.433Z,86.40
2018-11-25T21:12:55.151Z,86.40
2018-11-25T21:16:58.778Z,86.60
2018-11-25T21:21:02.457Z,86.60
2018-11-25T21:25:11.312Z,86.90
2018-11-25T21:29:16.439Z,86.80
2018-11-25T21:33:18.850Z,86.50
2018-11-25T21:37:22.505Z,86.70
2018-11-25T21:41:26.199Z,86.80
2018-11-25T21:45:29.942Z,87.50
2018-11-25T21:49:33.611Z,86.50
2018-11-25T21:53:37.385Z,86.50
2018-11-25T21:57:41.036Z,87.40
2018-11-25T22:01:44.677Z,86.30
2018-11-25T22:05:48.383Z,86.30
2018-11-25T22:09:52.078Z,86.20
2018-11-25T22:13:55.754Z,86.20
2018-11-25T22:17:59.368Z,86.40
2018-11-25T22:22:03.034Z,86.20
2018-11-25T22:26:06.769Z,86.20
2018-11-25T22:30:17.412Z,86.70
2018-11-25T22:34:21.060Z,86.60
2018-11-25T22:38:24.738Z,86.30
2018-11-25T22:42:28.425Z,86.50
2018-11-25T22:46:32.134Z,86.40
2018-11-25T22:50:35.810Z,86.20
2018-11-25T22:54:39.466Z,86.30
2018-11-25T22:58:43.136Z,86.40
2018-11-25T23:02:46.793Z,86.20
2018-11-25T23:07:07.583Z,86.20
2018-11-25T23:11:11.309Z,86.30
2018-11-25T23:15:15.026Z,86.20
2018-11-25T23:19:18.706Z,86.20
2018-11-25T23:23:22.402Z,86.20
2018-11-25T23:27:26.109Z,86.40
2018-11-25T23:31:29.797Z,86.10
2018-11-25T23:35:34.412Z,86.20
2018-11-25T23:39:38.141Z,86.30
2018-11-25T23:43:41.798Z,86.10
2018-11-25T23:47:45.589Z,86.30
2018-11-25T23:51:49.312Z,86.40
2018-11-25T23:55:53.037Z,86.20
2018-11-25T23:59:56.712Z,86.30
